Colden, New York
Current Conditions -  °F | °C
As of 2:54 AM on Friday 24 Oct 2014 (Local Time) from KBUF Reporting Station
Clear Clear  
Wind Chill: 42°   Ceiling: Unl
Heat Index: 44°   Visibility: 10mi
Dew Point: 40°   Wind: 5mph
Humidity: 85%   Direction: 320°NW
Pressure: 30.02"   Gusts: NA
Location:  42.64°N, 78.68°W
Report Text: KBUF 240654Z 32004KT 10SM CLR 07/04 A3002 RMK AO2 SLP167 T00670044
Loading
Personal Weather Stations






























Interactive Weather Map
Tropical Storm Tracking
New forecast layout! Learn more

10-Day Weather Forecast

Advertisements
Track Severe Weather on mobile